sensor_id;sensor_type;location;lat;lon;timestamp;pressure;altitude;pressure_sealevel;temperature;humidity
50282;BME280;36176;51.506;10.272;2022-12-20T00:00:51;99750.69;;;5.19;87.69
50282;BME280;36176;51.506;10.272;2022-12-20T00:03:25;99762.91;;;5.21;87.83
50282;BME280;36176;51.506;10.272;2022-12-20T00:06:03;99760.25;;;5.24;87.97
50282;BME280;36176;51.506;10.272;2022-12-20T00:08:31;99754.09;;;5.24;87.75
50282;BME280;36176;51.506;10.272;2022-12-20T00:11:07;99758.41;;;5.26;88.40
50282;BME280;36176;51.506;10.272;2022-12-20T00:13:45;99755.69;;;5.31;87.89
50282;BME280;36176;51.506;10.272;2022-12-20T00:16:21;99759.13;;;5.35;88.20
50282;BME280;36176;51.506;10.272;2022-12-20T00:18:57;99759.81;;;5.44;88.41
50282;BME280;36176;51.506;10.272;2022-12-20T00:21:33;99753.53;;;5.50;87.53
50282;BME280;36176;51.506;10.272;2022-12-20T00:24:00;99749.84;;;5.59;87.60
50282;BME280;36176;51.506;10.272;2022-12-20T00:26:52;99747.03;;;5.66;87.03
50282;BME280;36176;51.506;10.272;2022-12-20T00:29:28;99754.69;;;5.77;87.16
50282;BME280;36176;51.506;10.272;2022-12-20T00:31:55;99759.81;;;5.82;86.75
50282;BME280;36176;51.506;10.272;2022-12-20T00:34:22;99747.50;;;5.85;87.07
50282;BME280;36176;51.506;10.272;2022-12-20T00:37:10;99753.41;;;5.93;86.53
50282;BME280;36176;51.506;10.272;2022-12-20T00:39:37;99754.28;;;5.95;86.85
50282;BME280;36176;51.506;10.272;2022-12-20T00:42:04;99746.38;;;5.97;86.40
50282;BME280;36176;51.506;10.272;2022-12-20T00:44:32;99747.97;;;6.03;86.31
50282;BME280;36176;51.506;10.272;2022-12-20T00:47:15;99753.13;;;6.07;85.85
50282;BME280;36176;51.506;10.272;2022-12-20T00:50:08;99743.53;;;6.05;86.30
50282;BME280;36176;51.506;10.272;2022-12-20T00:52:44;99737.31;;;6.09;86.17
50282;BME280;36176;51.506;10.272;2022-12-20T00:55:13;99743.41;;;6.11;86.30
50282;BME280;36176;51.506;10.272;2022-12-20T00:57:40;99736.25;;;6.16;86.01
50282;BME280;36176;51.506;10.272;2022-12-20T01:00:08;99722.25;;;6.15;86.44
50282;BME280;36176;51.506;10.272;2022-12-20T01:02:36;99713.41;;;6.18;85.63
50282;BME280;36176;51.506;10.272;2022-12-20T01:05:23;99711.47;;;6.25;86.28
50282;BME280;36176;51.506;10.272;2022-12-20T01:07:57;99710.47;;;6.30;85.58
50282;BME280;36176;51.506;10.272;2022-12-20T01:10:25;99708.56;;;6.35;85.17
50282;BME280;36176;51.506;10.272;2022-12-20T01:12:53;99704.06;;;6.39;85.23
50282;BME280;36176;51.506;10.272;2022-12-20T01:15:26;99699.72;;;6.38;85.68
50282;BME280;36176;51.506;10.272;2022-12-20T01:17:54;99696.38;;;6.33;85.20
50282;BME280;36176;51.506;10.272;2022-12-20T01:20:32;99698.88;;;6.37;85.27
50282;BME280;36176;51.506;10.272;2022-12-20T01:23:00;99704.13;;;6.37;84.76
50282;BME280;36176;51.506;10.272;2022-12-20T01:25:27;99693.66;;;6.34;84.91
50282;BME280;36176;51.506;10.272;2022-12-20T01:27:54;99684.16;;;6.30;85.55
50282;BME280;36176;51.506;10.272;2022-12-20T01:30:21;99689.44;;;6.29;85.50
50282;BME280;36176;51.506;10.272;2022-12-20T01:32:48;99691.13;;;6.31;85.70
50282;BME280;36176;51.506;10.272;2022-12-20T01:35:34;99695.31;;;6.38;85.20
50282;BME280;36176;51.506;10.272;2022-12-20T01:38:01;99680.38;;;6.39;85.43
50282;BME280;36176;51.506;10.272;2022-12-20T01:40:28;99674.34;;;6.35;85.67
50282;BME280;36176;51.506;10.272;2022-12-20T01:42:55;99674.47;;;6.31;85.13
50282;BME280;36176;51.506;10.272;2022-12-20T01:45:28;99675.44;;;6.27;85.41
50282;BME280;36176;51.506;10.272;2022-12-20T01:47:57;99680.81;;;6.24;85.79
50282;BME280;36176;51.506;10.272;2022-12-20T01:50:33;99685.34;;;6.18;85.75
50282;BME280;36176;51.506;10.272;2022-12-20T01:53:01;99691.69;;;6.10;86.21
50282;BME280;36176;51.506;10.272;2022-12-20T01:55:33;99696.94;;;6.10;86.72
50282;BME280;36176;51.506;10.272;2022-12-20T01:58:04;99690.09;;;6.04;86.94
50282;BME280;36176;51.506;10.272;2022-12-20T02:00:32;99682.19;;;6.04;87.27
50282;BME280;36176;51.506;10.272;2022-12-20T02:03:04;99675.34;;;5.97;86.60
50282;BME280;36176;51.506;10.272;2022-12-20T02:05:39;99675.44;;;5.92;87.14
50282;BME280;36176;51.506;10.272;2022-12-20T02:08:07;99679.88;;;5.89;87.51
50282;BME280;36176;51.506;10.272;2022-12-20T02:11:12;99686.16;;;5.85;87.59
50282;BME280;36176;51.506;10.272;2022-12-20T02:14:47;99694.06;;;5.83;88.15
50282;BME280;36176;51.506;10.272;2022-12-20T02:31:34;99658.63;;;6.00;88.44
50282;BME280;36176;51.506;10.272;2022-12-20T02:34:05;99668.22;;;6.01;88.59
50282;BME280;36176;51.506;10.272;2022-12-20T02:36:33;99670.69;;;6.08;88.20
50282;BME280;36176;51.506;10.272;2022-12-20T02:39:00;99667.13;;;6.11;88.36
50282;BME280;36176;51.506;10.272;2022-12-20T02:41:34;99660.91;;;6.13;88.47
50282;BME280;36176;51.506;10.272;2022-12-20T02:44:10;99675.69;;;6.17;88.03
50282;BME280;36176;51.506;10.272;2022-12-20T02:46:58;99668.63;;;6.20;88.45
50282;BME280;36176;51.506;10.272;2022-12-20T02:50:22;99679.13;;;6.21;88.17
50282;BME280;36176;51.506;10.272;2022-12-20T02:52:58;99671.97;;;6.26;88.60
50282;BME280;36176;51.506;10.272;2022-12-20T02:58:42;99682.47;;;6.28;88.20
50282;BME280;36176;51.506;10.272;2022-12-20T03:01:47;99680.69;;;6.28;88.31
50282;BME280;36176;51.506;10.272;2022-12-20T03:04:17;99683.47;;;6.22;88.07
50282;BME280;36176;51.506;10.272;2022-12-20T03:07:05;99670.19;;;6.27;89.15
50282;BME280;36176;51.506;10.272;2022-12-20T03:09:58;99661.19;;;6.35;88.36
50282;BME280;36176;51.506;10.272;2022-12-20T03:12:44;99654.91;;;6.41;88.60
50282;BME280;36176;51.506;10.272;2022-12-20T03:15:30;99645.09;;;6.46;88.19
50282;BME280;36176;51.506;10.272;2022-12-20T03:18:11;99633.72;;;6.46;88.24
50282;BME280;36176;51.506;10.272;2022-12-20T03:20:38;99636.19;;;6.52;88.65
50282;BME280;36176;51.506;10.272;2022-12-20T03:23:06;99626.28;;;6.60;88.58
50282;BME280;36176;51.506;10.272;2022-12-20T03:25:36;99617.41;;;6.64;88.41
50282;BME280;36176;51.506;10.272;2022-12-20T03:33:33;99624.78;;;6.82;87.60
50282;BME280;36176;51.506;10.272;2022-12-20T03:36:00;99633.34;;;6.89;87.41
50282;BME280;36176;51.506;10.272;2022-12-20T03:38:27;99639.53;;;6.88;87.28
50282;BME280;36176;51.506;10.272;2022-12-20T03:40:54;99629.03;;;6.87;87.51
50282;BME280;36176;51.506;10.272;2022-12-20T03:43:22;99628.19;;;6.86;87.62
50282;BME280;36176;51.506;10.272;2022-12-20T03:46:15;99644.94;;;6.84;87.45
50282;BME280;36176;51.506;10.272;2022-12-20T03:48:56;99644.06;;;6.83;88.42
50282;BME280;36176;51.506;10.272;2022-12-20T03:51:26;99661.56;;;6.86;88.26
50282;BME280;36176;51.506;10.272;2022-12-20T03:53:59;99663.94;;;6.95;88.23
50282;BME280;36176;51.506;10.272;2022-12-20T03:56:26;99673.50;;;6.97;88.20
50282;BME280;36176;51.506;10.272;2022-12-20T03:58:56;99661.88;;;7.05;87.58
50282;BME280;36176;51.506;10.272;2022-12-20T04:01:26;99666.13;;;7.09;87.90
50282;BME280;36176;51.506;10.272;2022-12-20T04:03:55;99652.81;;;7.13;87.73
50282;BME280;36176;51.506;10.272;2022-12-20T04:06:25;99648.44;;;7.14;87.97
50282;BME280;36176;51.506;10.272;2022-12-20T04:08:53;99647.53;;;7.15;87.68
50282;BME280;36176;51.506;10.272;2022-12-20T04:11:29;99638.56;;;7.20;87.15
50282;BME280;36176;51.506;10.272;2022-12-20T04:13:56;99635.06;;;7.20;87.22
50282;BME280;36176;51.506;10.272;2022-12-20T04:16:28;99643.97;;;7.16;87.82
50282;BME280;36176;51.506;10.272;2022-12-20T04:18:56;99639.63;;;7.15;87.82
50282;BME280;36176;51.506;10.272;2022-12-20T04:21:31;99641.31;;;7.16;88.01
50282;BME280;36176;51.506;10.272;2022-12-20T04:24:00;99644.84;;;7.16;87.89
50282;BME280;36176;51.506;10.272;2022-12-20T04:26:28;99644.03;;;7.14;87.86
50282;BME280;36176;51.506;10.272;2022-12-20T04:28:56;99647.53;;;7.15;87.17
50282;BME280;36176;51.506;10.272;2022-12-20T04:31:49;99650.16;;;7.15;87.53
50282;BME280;36176;51.506;10.272;2022-12-20T04:34:17;99634.19;;;7.19;87.66
50282;BME280;36176;51.506;10.272;2022-12-20T04:36:44;99634.25;;;7.18;87.30
50282;BME280;36176;51.506;10.272;2022-12-20T04:39:11;99636.88;;;7.18;87.32
50282;BME280;36176;51.506;10.272;2022-12-20T04:41:38;99631.72;;;7.15;87.64
50282;BME280;36176;51.506;10.272;2022-12-20T04:44:05;99630.00;;;7.14;87.85
50282;BME280;36176;51.506;10.272;2022-12-20T04:46:33;99629.91;;;7.17;87.67
50282;BME280;36176;51.506;10.272;2022-12-20T04:49:00;99617.44;;;7.22;87.87
50282;BME280;36176;51.506;10.272;2022-12-20T04:51:27;99619.81;;;7.30;87.48
50282;BME280;36176;51.506;10.272;2022-12-20T04:53:55;99630.06;;;7.39;87.59
50282;BME280;36176;51.506;10.272;2022-12-20T04:56:25;99633.44;;;7.44;87.24
50282;BME280;36176;51.506;10.272;2022-12-20T04:58:56;99641.16;;;7.50;86.82
50282;BME280;36176;51.506;10.272;2022-12-20T05:01:24;99637.59;;;7.51;86.58
50282;BME280;36176;51.506;10.272;2022-12-20T05:03:52;99640.31;;;7.50;86.13
50282;BME280;36176;51.506;10.272;2022-12-20T05:06:19;99624.63;;;7.45;85.87
50282;BME280;36176;51.506;10.272;2022-12-20T05:08:46;99623.91;;;7.40;86.44
50282;BME280;36176;51.506;10.272;2022-12-20T05:11:13;99632.94;;;7.33;86.55
50282;BME280;36176;51.506;10.272;2022-12-20T05:13:41;99631.06;;;7.35;86.82
50282;BME280;36176;51.506;10.272;2022-12-20T05:16:08;99630.31;;;7.31;86.48
50282;BME280;36176;51.506;10.272;2022-12-20T05:18:36;99624.94;;;7.34;86.64
50282;BME280;36176;51.506;10.272;2022-12-20T05:21:09;99627.47;;;7.37;86.50
50282;BME280;36176;51.506;10.272;2022-12-20T05:23:55;99636.47;;;7.32;86.52
50282;BME280;36176;51.506;10.272;2022-12-20T05:26:40;99633.94;;;7.29;86.41
50282;BME280;36176;51.506;10.272;2022-12-20T05:29:07;99642.66;;;7.31;86.48
50282;BME280;36176;51.506;10.272;2022-12-20T05:31:35;99631.19;;;7.32;85.94
50282;BME280;36176;51.506;10.272;2022-12-20T05:34:02;99614.50;;;7.31;86.09
50282;BME280;36176;51.506;10.272;2022-12-20T05:36:29;99602.34;;;7.27;86.93
50282;BME280;36176;51.506;10.272;2022-12-20T05:38:56;99602.41;;;7.26;86.60
50282;BME280;36176;51.506;10.272;2022-12-20T05:41:30;99593.44;;;7.31;86.14
50282;BME280;36176;51.506;10.272;2022-12-20T05:43:58;99606.47;;;7.36;85.87
50282;BME280;36176;51.506;10.272;2022-12-20T05:46:41;99615.94;;;7.41;86.03
50282;BME280;36176;51.506;10.272;2022-12-20T05:49:09;99609.63;;;7.47;85.99
50282;BME280;36176;51.506;10.272;2022-12-20T05:51:36;99617.28;;;7.55;85.75
50282;BME280;36176;51.506;10.272;2022-12-20T05:54:03;99620.78;;;7.55;85.84
50282;BME280;36176;51.506;10.272;2022-12-20T05:56:31;99626.88;;;7.57;85.65
50282;BME280;36176;51.506;10.272;2022-12-20T05:58:58;99625.78;;;7.63;85.39
50282;BME280;36176;51.506;10.272;2022-12-20T06:01:25;99623.13;;;7.64;84.86
50282;BME280;36176;51.506;10.272;2022-12-20T06:03:53;99631.19;;;7.60;84.73
50282;BME280;36176;51.506;10.272;2022-12-20T06:06:21;99618.13;;;7.55;84.67
50282;BME280;36176;51.506;10.272;2022-12-20T06:08:48;99613.88;;;7.51;85.00
50282;BME280;36176;51.506;10.272;2022-12-20T06:11:15;99613.00;;;7.51;84.47
50282;BME280;36176;51.506;10.272;2022-12-20T06:13:42;99604.25;;;7.50;84.23
50282;BME280;36176;51.506;10.272;2022-12-20T06:16:10;99606.06;;;7.48;84.48
50282;BME280;36176;51.506;10.272;2022-12-20T06:18:37;99600.91;;;7.45;83.73
50282;BME280;36176;51.506;10.272;2022-12-20T06:21:04;99608.88;;;7.42;84.07
50282;BME280;36176;51.506;10.272;2022-12-20T06:23:31;99604.44;;;7.44;83.46
50282;BME280;36176;51.506;10.272;2022-12-20T06:26:00;99605.53;;;7.37;83.69
50282;BME280;36176;51.506;10.272;2022-12-20T06:28:27;99607.47;;;7.32;83.30
50282;BME280;36176;51.506;10.272;2022-12-20T06:30:56;99601.47;;;7.27;83.85
50282;BME280;36176;51.506;10.272;2022-12-20T06:33:24;99611.25;;;7.23;83.73
50282;BME280;36176;51.506;10.272;2022-12-20T06:35:54;99606.13;;;7.18;83.92
50282;BME280;36176;51.506;10.272;2022-12-20T06:38:22;99607.25;;;7.11;83.50
50282;BME280;36176;51.506;10.272;2022-12-20T06:40:50;99618.78;;;7.07;83.60
50282;BME280;36176;51.506;10.272;2022-12-20T06:43:17;99618.81;;;7.06;83.99
50282;BME280;36176;51.506;10.272;2022-12-20T06:45:45;99620.56;;;7.07;83.42
50282;BME280;36176;51.506;10.272;2022-12-20T06:48:12;99622.38;;;7.05;83.38
50282;BME280;36176;51.506;10.272;2022-12-20T06:50:39;99632.22;;;6.98;83.87
50282;BME280;36176;51.506;10.272;2022-12-20T06:53:09;99627.06;;;6.95;83.83
50282;BME280;36176;51.506;10.272;2022-12-20T06:55:37;99613.88;;;6.95;83.96
50282;BME280;36176;51.506;10.272;2022-12-20T06:58:04;99617.59;;;6.88;83.98
50282;BME280;36176;51.506;10.272;2022-12-20T07:00:32;99619.41;;;6.86;83.69
50282;BME280;36176;51.506;10.272;2022-12-20T07:02:59;99615.22;;;6.80;83.86
50282;BME280;36176;51.506;10.272;2022-12-20T07:05:26;99610.00;;;6.77;84.40
50282;BME280;36176;51.506;10.272;2022-12-20T07:07:54;99621.63;;;6.70;83.77
50282;BME280;36176;51.506;10.272;2022-12-20T07:10:21;99619.94;;;6.67;84.63
50282;BME280;36176;51.506;10.272;2022-12-20T07:12:48;99619.31;;;6.59;84.55
50282;BME280;36176;51.506;10.272;2022-12-20T07:15:16;99615.06;;;6.53;84.17
50282;BME280;36176;51.506;10.272;2022-12-20T07:17:43;99619.47;;;6.53;84.55
50282;BME280;36176;51.506;10.272;2022-12-20T07:20:11;99611.56;;;6.53;84.18
50282;BME280;36176;51.506;10.272;2022-12-20T07:22:40;99595.75;;;6.54;83.57
50282;BME280;36176;51.506;10.272;2022-12-20T07:25:08;99598.25;;;6.59;83.68
50282;BME280;36176;51.506;10.272;2022-12-20T07:27:36;99621.03;;;6.60;83.57
50282;BME280;36176;51.506;10.272;2022-12-20T07:30:06;99606.91;;;6.63;83.52
50282;BME280;36176;51.506;10.272;2022-12-20T07:32:33;99605.13;;;6.63;83.74
50282;BME280;36176;51.506;10.272;2022-12-20T07:35:02;99600.88;;;6.59;83.68
50282;BME280;36176;51.506;10.272;2022-12-20T07:37:30;99610.59;;;6.57;83.81
50282;BME280;36176;51.506;10.272;2022-12-20T07:39:58;99605.31;;;6.57;83.55
50282;BME280;36176;51.506;10.272;2022-12-20T07:42:28;99606.09;;;6.60;83.74
50282;BME280;36176;51.506;10.272;2022-12-20T07:45:05;99612.25;;;6.61;83.34
50282;BME280;36176;51.506;10.272;2022-12-20T07:47:36;99611.34;;;6.60;83.47
50282;BME280;36176;51.506;10.272;2022-12-20T07:50:04;99610.50;;;6.60;84.17
50282;BME280;36176;51.506;10.272;2022-12-20T07:52:33;99608.78;;;6.59;83.69
50282;BME280;36176;51.506;10.272;2022-12-20T07:55:04;99599.88;;;6.63;83.76
50282;BME280;36176;51.506;10.272;2022-12-20T07:57:38;99603.31;;;6.65;83.25
50282;BME280;36176;51.506;10.272;2022-12-20T08:00:10;99595.53;;;6.62;83.45
50282;BME280;36176;51.506;10.272;2022-12-20T08:02:42;99598.06;;;6.65;83.78
50282;BME280;36176;51.506;10.272;2022-12-20T08:05:11;99590.13;;;6.67;83.85
50282;BME280;36176;51.506;10.272;2022-12-20T08:07:40;99578.53;;;6.72;83.67
50282;BME280;36176;51.506;10.272;2022-12-20T08:10:13;99580.19;;;6.76;84.13
50282;BME280;36176;51.506;10.272;2022-12-20T08:12:44;99580.00;;;6.82;84.20
50282;BME280;36176;51.506;10.272;2022-12-20T08:15:12;99583.41;;;6.86;83.95
50282;BME280;36176;51.506;10.272;2022-12-20T08:17:40;99576.31;;;6.88;83.93
50282;BME280;36176;51.506;10.272;2022-12-20T08:20:07;99583.25;;;6.91;84.01
50282;BME280;36176;51.506;10.272;2022-12-20T08:22:36;99577.03;;;6.93;84.17
50282;BME280;36176;51.506;10.272;2022-12-20T08:25:04;99568.31;;;6.91;83.50
50282;BME280;36176;51.506;10.272;2022-12-20T08:27:31;99566.78;;;6.84;84.23
50282;BME280;36176;51.506;10.272;2022-12-20T08:29:59;99558.84;;;6.86;84.57
50282;BME280;36176;51.506;10.272;2022-12-20T08:32:29;99564.00;;;6.89;84.64
50282;BME280;36176;51.506;10.272;2022-12-20T08:34:57;99556.06;;;6.90;84.36
50282;BME280;36176;51.506;10.272;2022-12-20T08:37:27;99555.09;;;6.93;84.67
50282;BME280;36176;51.506;10.272;2022-12-20T08:39:54;99546.00;;;7.03;85.24
50282;BME280;36176;51.506;10.272;2022-12-20T08:42:21;99544.84;;;7.12;84.88
50282;BME280;36176;51.506;10.272;2022-12-20T08:44:50;99550.69;;;7.21;84.79
50282;BME280;36176;51.506;10.272;2022-12-20T08:47:18;99549.59;;;7.29;84.63
50282;BME280;36176;51.506;10.272;2022-12-20T08:49:46;99546.59;;;7.39;84.11
50282;BME280;36176;51.506;10.272;2022-12-20T08:52:14;99535.75;;;7.49;84.45
50282;BME280;36176;51.506;10.272;2022-12-20T08:54:44;99532.84;;;7.56;83.86
50282;BME280;36176;51.506;10.272;2022-12-20T08:57:12;99535.31;;;7.61;83.65
50282;BME280;36176;51.506;10.272;2022-12-20T08:59:42;99548.44;;;7.64;84.50
50282;BME280;36176;51.506;10.272;2022-12-20T09:02:10;99545.72;;;7.65;83.70
50282;BME280;36176;51.506;10.272;2022-12-20T09:04:37;99549.28;;;7.64;84.12
50282;BME280;36176;51.506;10.272;2022-12-20T09:07:05;99549.16;;;7.67;84.29
50282;BME280;36176;51.506;10.272;2022-12-20T09:09:32;99535.72;;;7.75;84.02
50282;BME280;36176;51.506;10.272;2022-12-20T09:11:59;99532.88;;;7.81;83.57
50282;BME280;36176;51.506;10.272;2022-12-20T09:14:30;99533.53;;;7.88;83.14
50282;BME280;36176;51.506;10.272;2022-12-20T09:17:05;99535.94;;;7.94;82.45
50282;BME280;36176;51.506;10.272;2022-12-20T09:19:35;99533.91;;;8.02;82.71
50282;BME280;36176;51.506;10.272;2022-12-20T09:22:05;99519.59;;;8.08;82.41
50282;BME280;36176;51.506;10.272;2022-12-20T09:24:36;99514.03;;;8.16;81.80
50282;BME280;36176;51.506;10.272;2022-12-20T09:27:03;99506.72;;;8.24;81.54
50282;BME280;36176;51.506;10.272;2022-12-20T09:29:31;99509.00;;;8.33;81.34
50282;BME280;36176;51.506;10.272;2022-12-20T09:32:02;99527.38;;;8.36;80.83
50282;BME280;36176;51.506;10.272;2022-12-20T09:34:29;99527.25;;;8.41;80.23
50282;BME280;36176;51.506;10.272;2022-12-20T09:36:56;99527.31;;;8.38;79.78
50282;BME280;36176;51.506;10.272;2022-12-20T09:39:26;99534.44;;;8.36;80.03
50282;BME280;36176;51.506;10.272;2022-12-20T09:41:54;99526.63;;;8.32;79.98
50282;BME280;36176;51.506;10.272;2022-12-20T09:46:56;99538.28;;;8.27;79.32
50282;BME280;36176;51.506;10.272;2022-12-20T09:49:34;99531.22;;;8.27;79.42
50282;BME280;36176;51.506;10.272;2022-12-20T09:58:10;99538.41;;;8.24;79.23
50282;BME280;36176;51.506;10.272;2022-12-20T10:00:47;99537.59;;;8.22;79.87
50282;BME280;36176;51.506;10.272;2022-12-20T10:03:31;99533.84;;;8.27;79.41
50282;BME280;36176;51.506;10.272;2022-12-20T10:06:25;99542.53;;;8.31;78.98
50282;BME280;36176;51.506;10.272;2022-12-20T10:09:01;99531.03;;;8.32;79.44
50282;BME280;36176;51.506;10.272;2022-12-20T10:16:49;99519.84;;;8.50;78.70
50282;BME280;36176;51.506;10.272;2022-12-20T10:19:24;99514.25;;;8.58;79.09
50282;BME280;36176;51.506;10.272;2022-12-20T10:24:47;99504.19;;;8.68;78.26
50282;BME280;36176;51.506;10.272;2022-12-20T10:27:19;99507.69;;;8.68;78.18
50282;BME280;36176;51.506;10.272;2022-12-20T10:29:49;99485.66;;;8.69;78.11
50282;BME280;36176;51.506;10.272;2022-12-20T10:32:26;99471.56;;;8.69;78.34
50282;BME280;36176;51.506;10.272;2022-12-20T10:35:23;99478.47;;;8.73;78.73
50282;BME280;36176;51.506;10.272;2022-12-20T10:38:04;99480.91;;;8.78;78.31
50282;BME280;36176;51.506;10.272;2022-12-20T10:41:02;99478.09;;;8.82;77.36
50282;BME280;36176;51.506;10.272;2022-12-20T10:43:51;99476.88;;;8.91;76.90
50282;BME280;36176;51.506;10.272;2022-12-20T10:46:21;99470.53;;;8.95;77.31
50282;BME280;36176;51.506;10.272;2022-12-20T10:48:50;99472.00;;;9.02;77.10
50282;BME280;36176;51.506;10.272;2022-12-20T10:51:20;99465.69;;;9.06;76.65
50282;BME280;36176;51.506;10.272;2022-12-20T10:56:24;99461.63;;;9.20;75.71
50282;BME280;36176;51.506;10.272;2022-12-20T10:59:32;99445.34;;;9.29;76.17
50282;BME280;36176;51.506;10.272;2022-12-20T11:05:02;99453.97;;;9.34;75.53
50282;BME280;36176;51.506;10.272;2022-12-20T11:07:52;99447.13;;;9.28;76.53
50282;BME280;36176;51.506;10.272;2022-12-20T11:10:44;99446.31;;;9.26;76.40
50282;BME280;36176;51.506;10.272;2022-12-20T11:13:24;99432.22;;;9.27;76.66
50282;BME280;36176;51.506;10.272;2022-12-20T11:15:55;99422.44;;;9.29;76.64
50282;BME280;36176;51.506;10.272;2022-12-20T11:18:48;99418.00;;;9.30;76.53
50282;BME280;36176;51.506;10.272;2022-12-20T11:21:48;99411.06;;;9.27;76.27
50282;BME280;36176;51.506;10.272;2022-12-20T11:26:59;99417.53;;;9.20;76.90
50282;BME280;36176;51.506;10.272;2022-12-20T11:29:45;99419.44;;;9.16;76.46
50282;BME280;36176;51.506;10.272;2022-12-20T11:38:31;99404.94;;;9.05;77.16
50282;BME280;36176;51.506;10.272;2022-12-20T11:58:10;99394.78;;;8.96;76.49
50282;BME280;36176;51.506;10.272;2022-12-20T12:03:45;99399.94;;;8.99;76.32
50282;BME280;36176;51.506;10.272;2022-12-20T12:06:16;99401.81;;;8.95;76.75
50282;BME280;36176;51.506;10.272;2022-12-20T12:11:36;99395.34;;;8.82;76.94
50282;BME280;36176;51.506;10.272;2022-12-20T12:17:33;99399.28;;;8.71;76.64
50282;BME280;36176;51.506;10.272;2022-12-20T12:20:30;99386.19;;;8.68;77.02
50282;BME280;36176;51.506;10.272;2022-12-20T12:23:17;99378.44;;;8.64;77.33
50282;BME280;36176;51.506;10.272;2022-12-20T12:25:48;99371.84;;;8.54;77.24
50282;BME280;36176;51.506;10.272;2022-12-20T12:28:17;99363.25;;;8.48;nan
50282;BME280;36176;51.506;10.272;2022-12-20T12:30:59;99359.84;;;8.45;78.26
50282;BME280;36176;51.506;10.272;2022-12-20T12:33:34;99365.94;;;8.47;78.00
50282;BME280;36176;51.506;10.272;2022-12-20T12:39:23;99360.41;;;8.53;77.91
50282;BME280;36176;51.506;10.272;2022-12-20T12:47:20;99342.41;;;8.63;77.21
50282;BME280;36176;51.506;10.272;2022-12-20T12:49:51;99351.94;;;8.67;77.76
50282;BME280;36176;51.506;10.272;2022-12-20T12:52:35;99346.69;;;8.65;78.12
50282;BME280;36176;51.506;10.272;2022-12-20T12:58:32;99337.59;;;8.72;78.13
50282;BME280;36176;51.506;10.272;2022-12-20T13:01:10;99336.81;;;8.70;77.52
50282;BME280;36176;51.506;10.272;2022-12-20T13:04:09;99337.66;;;8.71;78.06
50282;BME280;36176;51.506;10.272;2022-12-20T13:11:36;99332.28;;;8.74;78.42
50282;BME280;36176;51.506;10.272;2022-12-20T13:19:52;99322.47;;;8.76;77.61
50282;BME280;36176;51.506;10.272;2022-12-20T13:22:24;99313.69;;;8.76;77.91
50282;BME280;36176;51.506;10.272;2022-12-20T13:24:58;99319.81;;;8.76;77.37
50282;BME280;36176;51.506;10.272;2022-12-20T13:27:40;99314.53;;;8.76;77.27
50282;BME280;36176;51.506;10.272;2022-12-20T13:38:02;99299.78;;;8.72;77.85
50282;BME280;36176;51.506;10.272;2022-12-20T13:40:41;99298.97;;;8.70;77.76
50282;BME280;36176;51.506;10.272;2022-12-20T13:45:54;99300.63;;;8.72;77.70
50282;BME280;36176;51.506;10.272;2022-12-20T13:51:08;99299.81;;;8.70;77.77
50282;BME280;36176;51.506;10.272;2022-12-20T13:53:36;99301.63;;;8.70;77.37
50282;BME280;36176;51.506;10.272;2022-12-20T13:56:30;99300.69;;;8.71;78.32
50282;BME280;36176;51.506;10.272;2022-12-20T14:02:00;99299.31;;;8.62;77.86
50282;BME280;36176;51.506;10.272;2022-12-20T14:04:42;99295.06;;;8.58;77.54
50282;BME280;36176;51.506;10.272;2022-12-20T14:07:15;99284.50;;;8.58;77.76
50282;BME280;36176;51.506;10.272;2022-12-20T14:09:45;99296.66;;;8.62;77.07
50282;BME280;36176;51.506;10.272;2022-12-20T14:12:15;99294.06;;;8.61;77.24
50282;BME280;36176;51.506;10.272;2022-12-20T14:14:53;99298.41;;;8.62;76.85
50282;BME280;36176;51.506;10.272;2022-12-20T14:17:30;99291.44;;;8.61;76.90
50282;BME280;36176;51.506;10.272;2022-12-20T14:22:37;99301.19;;;8.59;76.74
50282;BME280;36176;51.506;10.272;2022-12-20T14:25:08;99284.50;;;8.58;76.46
50282;BME280;36176;51.506;10.272;2022-12-20T14:27:36;99278.47;;;8.55;76.91
50282;BME280;36176;51.506;10.272;2022-12-20T14:30:05;99273.31;;;8.51;76.55
50282;BME280;36176;51.506;10.272;2022-12-20T14:32:41;99277.91;;;8.48;76.53
50282;BME280;36176;51.506;10.272;2022-12-20T14:35:19;99279.41;;;8.54;75.99
50282;BME280;36176;51.506;10.272;2022-12-20T14:37:55;99278.47;;;8.55;76.34
50282;BME280;36176;51.506;10.272;2022-12-20T14:40:23;99273.31;;;8.51;76.50
50282;BME280;36176;51.506;10.272;2022-12-20T14:42:50;99263.81;;;8.47;76.10
50282;BME280;36176;51.506;10.272;2022-12-20T14:45:19;99269.09;;;8.47;75.99
50282;BME280;36176;51.506;10.272;2022-12-20T14:47:58;99255.31;;;8.41;76.42
50282;BME280;36176;51.506;10.272;2022-12-20T14:50:35;99266.88;;;8.37;76.24
50282;BME280;36176;51.506;10.272;2022-12-20T14:53:20;99262.53;;;8.36;76.27
50282;BME280;36176;51.506;10.272;2022-12-20T14:56:02;99272.47;;;8.29;77.02
50282;BME280;36176;51.506;10.272;2022-12-20T14:58:36;99277.16;;;8.22;77.26
50282;BME280;36176;51.506;10.272;2022-12-20T15:01:20;99272.03;;;8.18;77.54
50282;BME280;36176;51.506;10.272;2022-12-20T15:03:59;99274.75;;;8.16;76.98
50282;BME280;36176;51.506;10.272;2022-12-20T15:06:38;99274.44;;;8.24;77.15
50282;BME280;36176;51.506;10.272;2022-12-20T15:09:10;99260.97;;;8.30;76.96
50282;BME280;36176;51.506;10.272;2022-12-20T15:12:01;99272.41;;;8.30;76.86
50282;BME280;36176;51.506;10.272;2022-12-20T15:14:36;99261.84;;;8.30;76.70
50282;BME280;36176;51.506;10.272;2022-12-20T15:17:10;99248.63;;;8.30;76.31
50282;BME280;36176;51.506;10.272;2022-12-20T15:19:38;99252.16;;;8.31;76.57
50282;BME280;36176;51.506;10.272;2022-12-20T15:22:16;99253.81;;;8.34;76.33
50282;BME280;36176;51.506;10.272;2022-12-20T15:24:44;99261.72;;;8.34;76.93
50282;BME280;36176;51.506;10.272;2022-12-20T15:27:13;99250.38;;;8.31;76.27
50282;BME280;36176;51.506;10.272;2022-12-20T15:29:44;99251.38;;;8.29;76.12
50282;BME280;36176;51.506;10.272;2022-12-20T15:32:25;99257.63;;;8.26;76.92